Time;durP1;ratioP1;P1;durP2;ratioP2;P2;SDS_P1;SDS_P2;PMS_P1;PMS_P2;Temp;Humidity;BMP_temperature;BMP_pressure;BME280_temperature;BME280_humidity;BME280_pressure;Samples;Min_cycle;Max_cycle;Signal;HPM_P1;HPM_P2
2021/09/07 00:01:33;;;;;;;20.90;13.43;;;14.60;99.90;;;;;;5104794;27;20209;-45
2021/09/07 00:04:00;;;;;;;23.10;13.60;;;14.60;99.90;;;;;;5103854;28;20212;-53
2021/09/07 00:06:27;;;;;;;20.97;12.90;;;14.60;99.90;;;;;;5110372;27;20205;-44
2021/09/07 00:08:53;;;;;;;19.13;13.10;;;14.60;99.90;;;;;;5122827;27;20902;-48
2021/09/07 00:11:21;;;;;;;19.17;13.00;;;14.60;99.90;;;;;;5109440;27;20213;-50
2021/09/07 00:13:49;;;;;;;19.23;12.73;;;14.70;99.90;;;;;;5116876;27;20945;-46
2021/09/07 00:16:18;;;;;;;19.07;13.20;;;14.60;99.90;;;;;;5136512;27;20180;-50
2021/09/07 00:18:44;;;;;;;21.33;14.13;;;14.70;99.90;;;;;;5108435;27;20186;-46
2021/09/07 00:21:11;;;;;;;17.83;14.23;;;14.70;99.90;;;;;;5104213;28;20194;-44
2021/09/07 00:23:38;;;;;;;22.60;15.80;;;14.70;99.90;;;;;;5099699;28;20216;-44
2021/09/07 00:26:04;;;;;;;21.73;15.33;;;14.70;99.90;;;;;;5107601;27;20693;-49
2021/09/07 00:28:31;;;;;;;18.73;14.90;;;14.70;99.90;;;;;;5116375;27;20208;-49
2021/09/07 00:30:58;;;;;;;21.20;15.27;;;14.70;99.90;;;;;;5103209;28;20208;-45
2021/09/07 00:33:25;;;;;;;19.17;15.43;;;14.70;99.90;;;;;;5102604;28;20205;-49
2021/09/07 00:35:52;;;;;;;27.27;18.37;;;14.70;99.90;;;;;;5100405;27;20192;-48
2021/09/07 00:38:19;;;;;;;23.73;15.93;;;14.70;99.90;;;;;;5118880;27;20192;-48
2021/09/07 00:40:45;;;;;;;22.03;15.03;;;14.70;99.90;;;;;;5105702;27;20201;-49
2021/09/07 00:43:12;;;;;;;20.30;15.77;;;14.70;99.90;;;;;;5120641;27;20193;-44
2021/09/07 00:45:39;;;;;;;25.70;17.83;;;14.70;99.90;;;;;;5139889;27;20204;-47
2021/09/07 00:48:06;;;;;;;19.37;13.90;;;14.70;99.90;;;;;;5116860;27;20193;-52
2021/09/07 00:50:34;;;;;;;25.60;19.40;;;14.70;99.90;;;;;;5112414;27;20199;-48
2021/09/07 00:53:01;;;;;;;21.33;14.67;;;14.70;99.90;;;;;;5128472;27;20553;-54
2021/09/07 00:55:29;;;;;;;20.33;15.43;;;14.70;99.90;;;;;;5130346;27;20212;-50
2021/09/07 00:57:57;;;;;;;20.93;16.53;;;14.70;99.90;;;;;;5110125;27;20296;-44
2021/09/07 01:00:24;;;;;;;24.23;16.87;;;14.70;99.90;;;;;;5128556;27;20229;-47
2021/09/07 01:02:50;;;;;;;19.47;15.40;;;14.70;99.90;;;;;;5120998;27;20211;-49
2021/09/07 01:05:18;;;;;;;23.20;17.43;;;14.70;99.90;;;;;;5107637;27;20213;-49
2021/09/07 01:07:46;;;;;;;26.43;17.40;;;14.70;99.90;;;;;;5110342;27;20177;-51
2021/09/07 01:10:13;;;;;;;25.73;19.47;;;14.60;99.90;;;;;;5106526;27;20717;-45
2021/09/07 01:12:41;;;;;;;24.60;17.73;;;14.60;99.90;;;;;;5109530;27;20203;-47
2021/09/07 01:15:09;;;;;;;28.90;19.63;;;14.60;99.90;;;;;;5119588;27;20235;-52
2021/09/07 01:17:36;;;;;;;25.80;16.87;;;14.60;99.90;;;;;;5136384;27;20213;-46
2021/09/07 01:20:06;;;;;;;24.07;15.13;;;14.60;99.90;;;;;;5120734;27;20257;-53
2021/09/07 01:22:33;;;;;;;21.93;16.50;;;14.60;99.90;;;;;;5128256;27;20219;-45
2021/09/07 01:25:01;;;;;;;22.63;17.23;;;14.60;99.90;;;;;;5124008;27;20304;-53
2021/09/07 01:27:27;;;;;;;23.47;17.03;;;14.60;99.90;;;;;;5107886;27;20181;-50
2021/09/07 01:29:55;;;;;;;22.60;16.00;;;14.50;99.90;;;;;;5112739;27;20208;-51
2021/09/07 01:32:26;;;;;;;26.97;19.17;;;14.50;99.90;;;;;;5126061;27;20275;-51
2021/09/07 01:34:54;;;;;;;21.83;15.87;;;14.50;99.90;;;;;;5129314;27;20702;-52
2021/09/07 01:37:21;;;;;;;23.10;16.53;;;14.50;99.90;;;;;;5114807;27;20193;-49
2021/09/07 01:39:47;;;;;;;22.57;16.73;;;14.50;99.90;;;;;;5109715;27;20267;-46
2021/09/07 01:42:15;;;;;;;24.50;18.10;;;14.40;99.90;;;;;;5114880;27;20922;-47
2021/09/07 01:44:44;;;;;;;24.20;18.13;;;14.40;99.90;;;;;;5115152;27;20228;-49
2021/09/07 01:47:11;;;;;;;23.70;18.07;;;14.40;99.90;;;;;;5126103;27;20269;-51
2021/09/07 01:49:39;;;;;;;23.43;16.57;;;14.40;99.90;;;;;;5131360;27;20184;-51
2021/09/07 01:52:10;;;;;;;25.37;16.93;;;14.40;99.90;;;;;;5126543;27;20185;-48
2021/09/07 01:54:40;;;;;;;25.33;17.00;;;14.40;99.90;;;;;;5130454;27;20216;-52
2021/09/07 01:57:08;;;;;;;24.27;16.40;;;14.40;99.90;;;;;;5123845;27;20230;-46
2021/09/07 01:59:37;;;;;;;22.30;16.60;;;14.30;99.90;;;;;;5108183;27;20196;-44
2021/09/07 02:02:05;;;;;;;22.50;17.20;;;14.30;99.90;;;;;;5122390;27;20199;-53
2021/09/07 02:04:34;;;;;;;22.10;16.47;;;14.30;99.90;;;;;;5120741;27;20259;-46
2021/09/07 02:07:02;;;;;;;23.27;17.70;;;14.20;99.90;;;;;;5103759;27;20202;-54
2021/09/07 02:09:29;;;;;;;24.93;17.03;;;14.20;99.90;;;;;;5105627;28;20190;-50
2021/09/07 02:11:55;;;;;;;24.70;18.20;;;14.20;99.90;;;;;;5104806;28;20193;-45
2021/09/07 02:14:23;;;;;;;22.77;17.70;;;14.10;99.90;;;;;;5098249;27;20227;-49
2021/09/07 02:16:51;;;;;;;25.10;18.00;;;14.00;99.90;;;;;;5124012;27;20227;-46
2021/09/07 02:19:19;;;;;;;23.60;17.50;;;14.00;99.90;;;;;;5103560;27;20897;-47
2021/09/07 02:21:47;;;;;;;24.07;17.97;;;13.90;99.90;;;;;;5106214;27;20209;-45
2021/09/07 02:24:14;;;;;;;21.97;17.57;;;13.90;99.90;;;;;;5102862;28;20233;-49
2021/09/07 02:26:41;;;;;;;25.33;18.07;;;13.90;99.90;;;;;;5106280;28;20688;-46
2021/09/07 02:29:07;;;;;;;22.47;16.87;;;13.90;99.90;;;;;;5102422;28;20185;-49
2021/09/07 02:31:34;;;;;;;24.43;17.40;;;13.80;99.90;;;;;;5113229;27;20219;-49
2021/09/07 02:34:03;;;;;;;22.70;17.23;;;13.70;99.90;;;;;;5122462;27;20603;-50
2021/09/07 02:36:30;;;;;;;24.47;17.73;;;13.70;99.90;;;;;;5126821;27;20191;-44
2021/09/07 02:38:58;;;;;;;22.40;16.77;;;13.60;99.90;;;;;;5113954;27;20209;-55
2021/09/07 02:41:25;;;;;;;23.60;17.67;;;13.50;99.90;;;;;;5104877;28;20181;-44
2021/09/07 02:43:52;;;;;;;23.00;17.70;;;13.50;99.90;;;;;;5110361;27;20262;-47
2021/09/07 02:46:19;;;;;;;23.70;17.37;;;13.50;99.90;;;;;;5118520;27;20220;-51
2021/09/07 02:48:45;;;;;;;23.60;17.10;;;13.40;99.90;;;;;;5120759;27;20204;-47
2021/09/07 02:51:13;;;;;;;22.47;16.70;;;13.40;99.90;;;;;;5104821;27;20227;-49
2021/09/07 02:53:40;;;;;;;25.37;17.40;;;13.40;99.90;;;;;;5107768;28;20232;-48
2021/09/07 02:56:07;;;;;;;22.20;16.93;;;13.40;99.90;;;;;;5116786;27;20181;-50
2021/09/07 02:58:34;;;;;;;23.63;17.23;;;13.40;99.90;;;;;;5128100;27;20283;-48
2021/09/07 03:01:02;;;;;;;21.93;15.50;;;13.40;99.90;;;;;;5107215;27;20243;-47
2021/09/07 03:03:33;;;;;;;24.73;18.77;;;13.40;99.90;;;;;;5127194;27;20217;-48
2021/09/07 03:06:01;;;;;;;22.30;17.13;;;13.40;99.90;;;;;;5120949;27;20227;-47
2021/09/07 03:08:31;;;;;;;22.40;16.83;;;13.30;99.90;;;;;;5106973;28;20208;-48
2021/09/07 03:10:58;;;;;;;19.73;15.97;;;13.30;99.90;;;;;;5104397;28;20221;-45
2021/09/07 03:13:25;;;;;;;22.00;17.03;;;13.30;99.90;;;;;;5103792;28;20197;-51
2021/09/07 03:15:52;;;;;;;22.73;17.23;;;13.20;99.90;;;;;;5128198;27;20192;-46
2021/09/07 03:18:18;;;;;;;24.93;17.07;;;13.20;99.90;;;;;;5113031;27;20199;-51
2021/09/07 03:20:45;;;;;;;24.57;17.87;;;13.00;99.90;;;;;;5124016;27;20203;-48
2021/09/07 03:23:13;;;;;;;24.53;17.73;;;13.00;99.90;;;;;;5117215;27;20221;-49
2021/09/07 03:25:42;;;;;;;23.00;16.60;;;13.00;99.90;;;;;;5106987;28;20874;-52
2021/09/07 03:28:09;;;;;;;22.03;17.17;;;13.00;99.90;;;;;;5102179;28;20194;-49
2021/09/07 03:30:36;;;;;;;21.90;16.93;;;13.00;99.90;;;;;;5106392;28;20185;-50
2021/09/07 03:33:03;;;;;;;20.37;16.20;;;12.90;99.90;;;;;;5108859;27;20205;-46
2021/09/07 03:35:32;;;;;;;23.70;17.57;;;12.90;99.90;;;;;;5119886;27;20705;-47
2021/09/07 03:37:59;;;;;;;23.40;16.47;;;12.90;99.90;;;;;;5123126;27;20189;-52
2021/09/07 03:40:26;;;;;;;21.50;15.93;;;12.80;99.90;;;;;;5114339;27;20249;-48
2021/09/07 03:42:55;;;;;;;20.33;15.33;;;12.80;99.90;;;;;;5103440;28;20201;-47
2021/09/07 03:45:22;;;;;;;21.30;15.43;;;12.80;99.90;;;;;;5121331;27;20213;-46
2021/09/07 03:47:50;;;;;;;23.57;16.53;;;12.80;99.90;;;;;;5122926;27;20215;-46
2021/09/07 03:50:17;;;;;;;22.30;15.33;;;12.90;99.90;;;;;;5121965;27;20199;-51
2021/09/07 03:52:44;;;;;;;23.23;16.90;;;12.90;99.90;;;;;;5106459;27;20197;-49
2021/09/07 03:55:12;;;;;;;21.37;16.07;;;12.90;99.90;;;;;;5101099;28;20204;-50
2021/09/07 03:57:40;;;;;;;21.93;16.10;;;13.00;99.90;;;;;;5106159;28;20185;-48
2021/09/07 04:00:09;;;;;;;22.87;17.70;;;13.00;99.90;;;;;;5101941;28;20226;-48
2021/09/07 04:02:42;;;;;;;20.07;16.07;;;13.00;99.90;;;;;;5103948;27;20212;-49
2021/09/07 04:05:10;;;;;;;22.87;16.53;;;13.00;99.90;;;;;;5120833;27;20201;-49
2021/09/07 04:07:38;;;;;;;21.83;16.80;;;12.90;99.90;;;;;;5124875;27;20193;-52
2021/09/07 04:10:07;;;;;;;20.60;15.63;;;12.80;99.90;;;;;;5114846;27;20195;-44
2021/09/07 04:12:35;;;;;;;22.13;17.57;;;12.80;99.90;;;;;;5129681;27;20219;-50
2021/09/07 04:15:03;;;;;;;20.30;15.73;;;12.80;99.90;;;;;;5109851;27;20265;-48
2021/09/07 04:17:31;;;;;;;21.87;16.63;;;12.90;99.90;;;;;;5101612;27;20199;-46
2021/09/07 04:19:58;;;;;;;20.73;14.80;;;12.80;99.90;;;;;;5114279;27;20197;-48
2021/09/07 04:22:25;;;;;;;22.53;15.80;;;12.80;99.90;;;;;;5123114;27;20205;-46
2021/09/07 04:24:51;;;;;;;21.80;16.00;;;12.80;99.90;;;;;;5123468;27;20220;-50
2021/09/07 04:27:18;;;;;;;20.03;15.63;;;12.60;99.90;;;;;;5121930;27;20212;-47
2021/09/07 04:29:45;;;;;;;22.80;17.23;;;12.60;99.90;;;;;;5124294;27;20196;-50
2021/09/07 04:32:11;;;;;;;23.73;16.60;;;12.60;99.90;;;;;;5107613;27;20193;-43
2021/09/07 04:34:39;;;;;;;21.87;16.67;;;12.50;99.90;;;;;;5108961;27;20311;-45
2021/09/07 04:37:06;;;;;;;24.30;17.53;;;12.50;99.90;;;;;;5115187;27;20509;-53
2021/09/07 04:39:32;;;;;;;24.17;17.47;;;12.50;99.90;;;;;;5124247;27;20195;-43
2021/09/07 04:41:59;;;;;;;20.83;16.47;;;12.40;99.90;;;;;;5120489;27;20552;-54
2021/09/07 04:44:26;;;;;;;21.87;16.40;;;12.40;99.90;;;;;;5125958;27;20207;-52
2021/09/07 04:46:55;;;;;;;20.30;15.00;;;12.40;99.90;;;;;;5134399;27;20199;-46
2021/09/07 04:49:23;;;;;;;20.97;15.30;;;12.40;99.90;;;;;;5115539;27;20291;-46
2021/09/07 04:51:51;;;;;;;17.23;13.80;;;12.30;99.90;;;;;;5121582;27;20202;-49
2021/09/07 04:54:18;;;;;;;18.90;14.53;;;12.30;99.90;;;;;;5103567;28;20217;-48
2021/09/07 04:56:44;;;;;;;19.63;14.50;;;12.30;99.90;;;;;;5099904;28;20210;-53
2021/09/07 04:59:11;;;;;;;20.63;14.50;;;12.30;99.90;;;;;;5117841;28;20193;-45
2021/09/07 05:01:37;;;;;;;17.50;13.83;;;12.30;99.90;;;;;;5113344;27;20200;-51
2021/09/07 05:04:04;;;;;;;20.40;15.33;;;12.20;99.90;;;;;;5111288;27;20239;-48
2021/09/07 05:06:31;;;;;;;19.33;13.87;;;12.20;99.90;;;;;;5128105;27;20213;-52
2021/09/07 05:08:59;;;;;;;21.60;14.43;;;12.20;99.90;;;;;;5099369;27;20192;-48
2021/09/07 05:11:25;;;;;;;19.40;13.50;;;12.20;99.90;;;;;;5114418;27;20207;-48
2021/09/07 05:13:52;;;;;;;18.67;12.50;;;12.20;99.90;;;;;;5107413;27;20830;-48
2021/09/07 05:16:19;;;;;;;16.37;12.43;;;12.10;99.90;;;;;;5116923;28;20193;-47
2021/09/07 05:18:45;;;;;;;18.20;12.93;;;12.10;99.90;;;;;;5106162;27;20205;-50
2021/09/07 05:21:12;;;;;;;19.40;13.33;;;12.00;99.90;;;;;;5104047;27;20208;-49
2021/09/07 05:23:39;;;;;;;15.77;12.47;;;12.00;99.90;;;;;;5113556;27;20705;-46
2021/09/07 05:26:07;;;;;;;20.80;13.83;;;12.00;99.90;;;;;;5116735;27;20213;-51
2021/09/07 05:28:34;;;;;;;20.33;13.90;;;12.00;99.90;;;;;;5123657;27;20201;-52
2021/09/07 05:31:00;;;;;;;17.67;13.87;;;12.00;99.90;;;;;;5121562;27;20185;-48
2021/09/07 05:33:27;;;;;;;22.37;13.67;;;12.00;99.90;;;;;;5126935;27;20556;-46
2021/09/07 05:35:55;;;;;;;15.50;13.00;;;12.10;99.90;;;;;;5110485;27;20200;-50
2021/09/07 05:38:22;;;;;;;18.90;13.13;;;12.00;99.90;;;;;;5122743;27;20209;-50
2021/09/07 05:40:50;;;;;;;18.33;14.53;;;12.10;99.90;;;;;;5101583;27;21093;-49
2021/09/07 05:43:18;;;;;;;22.90;15.83;;;12.10;99.90;;;;;;5126848;27;20275;-48
2021/09/07 05:45:45;;;;;;;19.33;15.47;;;12.10;99.90;;;;;;5128212;27;20540;-52
2021/09/07 05:48:11;;;;;;;21.13;14.80;;;12.10;99.90;;;;;;5109451;27;20204;-43
2021/09/07 05:50:38;;;;;;;18.20;14.07;;;12.20;99.90;;;;;;5103406;27;20193;-46
2021/09/07 05:53:05;;;;;;;21.00;14.57;;;12.20;99.90;;;;;;5121674;27;20196;-50
2021/09/07 05:55:31;;;;;;;18.87;14.47;;;12.30;99.90;;;;;;5110742;27;20241;-50
2021/09/07 05:57:58;;;;;;;19.30;14.90;;;12.30;99.90;;;;;;5121590;27;20889;-46
2021/09/07 06:00:27;;;;;;;19.50;14.20;;;12.40;99.90;;;;;;5112254;27;20209;-47
2021/09/07 06:02:57;;;;;;;22.37;14.77;;;12.50;99.90;;;;;;5108925;27;20196;-46
2021/09/07 06:05:24;;;;;;;19.83;14.93;;;12.60;99.90;;;;;;5119783;27;20563;-46
2021/09/07 06:07:50;;;;;;;23.37;15.57;;;12.70;99.90;;;;;;5107788;27;20216;-50
2021/09/07 06:10:17;;;;;;;24.90;16.87;;;12.80;99.90;;;;;;5121625;27;20204;-50
2021/09/07 06:12:43;;;;;;;23.73;16.30;;;12.80;99.90;;;;;;5114645;27;20696;-45
2021/09/07 06:15:11;;;;;;;21.70;15.17;;;12.90;99.90;;;;;;5128885;27;20216;-51
2021/09/07 06:17:39;;;;;;;20.90;15.70;;;13.00;99.90;;;;;;5116181;27;20193;-46
2021/09/07 06:20:06;;;;;;;20.77;15.97;;;13.00;99.90;;;;;;5116691;27;20199;-51
2021/09/07 06:22:33;;;;;;;23.77;16.03;;;13.10;99.90;;;;;;5107819;27;20623;-54
2021/09/07 06:24:59;;;;;;;21.37;15.37;;;13.10;99.90;;;;;;5096958;27;20221;-47
2021/09/07 06:27:26;;;;;;;20.17;15.87;;;13.20;99.90;;;;;;5116871;27;20884;-45
2021/09/07 06:29:53;;;;;;;23.10;15.97;;;13.30;99.90;;;;;;5119424;27;20207;-47
2021/09/07 06:32:20;;;;;;;20.67;16.53;;;13.30;99.90;;;;;;5121769;27;20201;-48
2021/09/07 06:34:48;;;;;;;24.43;16.33;;;13.40;99.90;;;;;;5115833;27;20940;-50
2021/09/07 06:37:14;;;;;;;20.53;15.13;;;13.40;99.90;;;;;;5115415;27;20193;-49
2021/09/07 06:39:41;;;;;;;26.60;16.13;;;13.40;99.90;;;;;;5102443;27;20204;-51
2021/09/07 06:42:07;;;;;;;26.50;18.83;;;13.50;99.90;;;;;;5120705;27;20201;-45
2021/09/07 06:44:34;;;;;;;23.90;16.80;;;13.60;99.90;;;;;;5116864;27;20220;-51
2021/09/07 06:47:01;;;;;;;22.07;16.27;;;13.70;99.90;;;;;;5142051;27;20216;-48
2021/09/07 06:49:27;;;;;;;21.53;16.60;;;13.70;99.90;;;;;;5115405;27;20665;-47
2021/09/07 06:51:55;;;;;;;28.17;19.30;;;13.90;99.90;;;;;;5114699;27;20777;-49
2021/09/07 06:54:22;;;;;;;22.27;16.80;;;14.00;99.90;;;;;;5124127;27;20622;-48
2021/09/07 06:56:48;;;;;;;22.20;16.13;;;14.10;99.90;;;;;;5111255;27;20197;-51
2021/09/07 06:59:15;;;;;;;21.47;15.87;;;14.10;99.90;;;;;;5129567;27;20564;-48
2021/09/07 07:01:42;;;;;;;19.97;15.20;;;14.20;99.90;;;;;;5124244;27;20196;-46
2021/09/07 07:04:08;;;;;;;19.43;14.43;;;14.30;99.90;;;;;;5126121;27;20282;-54
2021/09/07 07:06:35;;;;;;;19.73;14.87;;;14.30;99.90;;;;;;5122134;27;20219;-46
2021/09/07 07:09:03;;;;;;;16.57;13.80;;;14.40;99.90;;;;;;5125738;27;20193;-51
2021/09/07 07:11:29;;;;;;;18.13;14.10;;;14.40;99.90;;;;;;5109761;27;20211;-53
2021/09/07 07:13:57;;;;;;;19.27;14.30;;;14.50;99.90;;;;;;5122026;27;20225;-44
2021/09/07 07:16:23;;;;;;;17.63;13.17;;;14.60;99.90;;;;;;5136435;27;20200;-53
2021/09/07 07:18:50;;;;;;;18.87;12.83;;;14.60;99.90;;;;;;5105395;27;20201;-45
2021/09/07 07:21:16;;;;;;;18.87;12.97;;;14.70;99.90;;;;;;5111888;27;20189;-47
2021/09/07 07:23:43;;;;;;;15.43;11.13;;;14.80;99.90;;;;;;5133800;27;20275;-48
2021/09/07 07:26:11;;;;;;;16.90;12.80;;;14.80;99.90;;;;;;5105217;27;20698;-45
2021/09/07 07:28:38;;;;;;;16.07;11.87;;;14.90;99.90;;;;;;5123596;27;20216;-48
2021/09/07 07:31:04;;;;;;;17.00;11.80;;;15.00;99.90;;;;;;5109159;27;20201;-50
2021/09/07 07:33:31;;;;;;;20.30;11.33;;;15.10;99.90;;;;;;5104332;27;20209;-45
2021/09/07 07:35:57;;;;;;;15.77;10.50;;;15.20;99.90;;;;;;5107015;27;20655;-49
2021/09/07 07:38:24;;;;;;;13.57;10.10;;;15.30;99.90;;;;;;5115789;27;20204;-48
2021/09/07 07:40:51;;;;;;;11.47;10.27;;;15.30;99.90;;;;;;5126297;27;20201;-47
2021/09/07 07:43:23;;;;;;;12.50;9.90;;;15.40;99.90;;;;;;5111356;27;20280;-48
2021/09/07 07:45:50;;;;;;;13.47;10.50;;;15.40;99.90;;;;;;5119151;27;20289;-49
2021/09/07 07:48:17;;;;;;;12.83;10.00;;;15.50;99.90;;;;;;5117011;27;20213;-49
2021/09/07 07:50:43;;;;;;;16.10;9.87;;;15.60;99.90;;;;;;5119340;27;20205;-48
2021/09/07 07:53:10;;;;;;;13.80;10.07;;;15.60;99.90;;;;;;5114035;27;20189;-48
2021/09/07 07:55:37;;;;;;;14.00;9.87;;;15.70;99.90;;;;;;5113057;27;20198;-45
2021/09/07 07:58:03;;;;;;;10.03;8.90;;;15.80;99.90;;;;;;5090129;27;20204;-47
2021/09/07 08:00:31;;;;;;;10.07;7.67;;;15.90;99.90;;;;;;5099405;27;20204;-45
2021/09/07 08:02:58;;;;;;;10.97;8.00;;;16.00;99.90;;;;;;5116893;27;20207;-45
2021/09/07 08:05:24;;;;;;;11.57;7.97;;;16.10;99.90;;;;;;5108072;27;20228;-52
2021/09/07 08:07:51;;;;;;;8.97;6.63;;;16.20;99.90;;;;;;5116647;27;20224;-49
2021/09/07 08:10:18;;;;;;;6.80;5.13;;;16.30;99.90;;;;;;5111059;27;20200;-52
2021/09/07 08:12:44;;;;;;;8.17;5.87;;;16.40;99.90;;;;;;5064285;27;21683;-52
2021/09/07 08:15:12;;;;;;;8.33;6.30;;;16.50;99.90;;;;;;5095396;27;20284;-51
2021/09/07 08:17:40;;;;;;;7.50;6.40;;;16.60;99.90;;;;;;5113465;27;20204;-50
2021/09/07 08:20:08;;;;;;;10.13;7.30;;;16.60;99.90;;;;;;5100952;27;20193;-46
2021/09/07 08:22:35;;;;;;;8.53;6.07;;;16.70;99.90;;;;;;5111477;27;20292;-50
2021/09/07 08:25:01;;;;;;;7.00;5.27;;;16.70;99.90;;;;;;5107943;27;20240;-48
2021/09/07 08:27:28;;;;;;;6.87;5.87;;;16.70;99.90;;;;;;5112766;27;20216;-51
2021/09/07 08:29:55;;;;;;;5.37;4.80;;;16.70;99.90;;;;;;5112227;27;20573;-48
2021/09/07 08:32:21;;;;;;;11.53;5.70;;;16.70;99.90;;;;;;5115706;27;20201;-53
2021/09/07 08:34:49;;;;;;;6.37;4.63;;;16.70;99.90;;;;;;5110401;27;20717;-57
2021/09/07 08:37:16;;;;;;;6.10;5.37;;;16.80;99.90;;;;;;5102701;27;20192;-51
2021/09/07 08:39:42;;;;;;;7.37;5.30;;;16.90;99.90;;;;;;5115640;27;20204;-50
2021/09/07 08:42:12;;;;;;;7.77;4.97;;;17.00;99.90;;;;;;5115486;27;20185;-54
2021/09/07 08:44:45;;;;;;;5.63;5.07;;;17.00;99.90;;;;;;5105814;27;20311;-51
2021/09/07 08:47:14;;;;;;;6.77;5.10;;;17.20;99.90;;;;;;5106143;27;20239;-53
2021/09/07 08:49:40;;;;;;;7.73;5.17;;;17.30;99.90;;;;;;5114791;27;20216;-48
2021/09/07 08:52:08;;;;;;;4.73;4.27;;;17.30;99.90;;;;;;5105592;27;20207;-53
2021/09/07 08:54:37;;;;;;;5.33;4.23;;;17.40;99.90;;;;;;5119747;27;20221;-55
2021/09/07 08:57:03;;;;;;;5.63;3.53;;;17.50;99.90;;;;;;5106112;27;20193;-47
2021/09/07 08:59:31;;;;;;;7.97;4.77;;;17.50;99.90;;;;;;5109707;27;20793;-42
2021/09/07 09:01:57;;;;;;;4.73;3.97;;;17.50;99.90;;;;;;5114665;27;20189;-44
2021/09/07 09:04:29;;;;;;;5.80;4.00;;;17.60;99.90;;;;;;5115300;27;20216;-43
2021/09/07 09:06:56;;;;;;;3.60;3.30;;;17.70;99.90;;;;;;5107316;27;20211;-47
2021/09/07 09:09:36;;;;;;;4.33;3.23;;;17.90;99.90;;;;;;5121920;27;20218;-44
2021/09/07 09:12:05;;;;;;;4.37;3.50;;;18.00;99.90;;;;;;5105442;27;20377;-48
2021/09/07 09:14:33;;;;;;;4.07;3.00;;;18.00;99.90;;;;;;5125005;27;20585;-49
2021/09/07 09:17:00;;;;;;;3.70;3.00;;;18.00;99.90;;;;;;5107071;27;20205;-45
2021/09/07 09:19:27;;;;;;;4.63;2.63;;;17.90;99.90;;;;;;5120274;27;20306;-47
2021/09/07 09:21:53;;;;;;;4.63;3.03;;;18.00;99.90;;;;;;5120312;27;20540;-46
2021/09/07 09:24:22;;;;;;;6.37;2.77;;;18.10;99.90;;;;;;5112935;27;20216;-48
2021/09/07 09:26:58;;;;;;;4.97;3.30;;;18.20;99.90;;;;;;5117914;27;20858;-51
2021/09/07 09:29:27;;;;;;;5.50;3.17;;;18.20;99.90;;;;;;5119355;27;20300;-49
2021/09/07 09:31:57;;;;;;;4.37;3.00;;;18.20;99.90;;;;;;5114300;27;20201;-48
2021/09/07 09:34:24;;;;;;;3.53;3.23;;;18.30;99.90;;;;;;5121838;27;20226;-47
2021/09/07 09:37:02;;;;;;;4.17;2.63;;;18.30;99.90;;;;;;5121249;27;20189;-49
2021/09/07 09:39:41;;;;;;;4.07;2.80;;;18.40;99.90;;;;;;5106637;27;20184;-49
2021/09/07 09:42:13;;;;;;;4.37;3.27;;;18.40;99.90;;;;;;5110304;27;20189;-45
2021/09/07 09:44:40;;;;;;;3.97;2.40;;;18.50;99.90;;;;;;5123283;27;20600;-48
2021/09/07 09:47:06;;;;;;;2.90;2.60;;;18.50;99.90;;;;;;5116279;27;20208;-48
2021/09/07 09:49:34;;;;;;;5.00;2.43;;;18.60;99.90;;;;;;5117026;27;20197;-43
2021/09/07 09:52:04;;;;;;;3.93;3.40;;;18.70;99.90;;;;;;5119433;27;20192;-50
2021/09/07 09:54:32;;;;;;;5.40;2.90;;;18.70;99.90;;;;;;5111143;27;20240;-44
2021/09/07 09:57:00;;;;;;;5.47;3.07;;;18.80;99.90;;;;;;5113934;27;20567;-49
2021/09/07 09:59:28;;;;;;;4.37;3.10;;;18.80;99.90;;;;;;5109277;27;20201;-44
2021/09/07 10:01:57;;;;;;;3.93;3.10;;;18.90;99.90;;;;;;5104611;27;20201;-50
2021/09/07 10:04:25;;;;;;;3.33;2.90;;;19.00;99.90;;;;;;5106667;27;20327;-43
2021/09/07 10:06:52;;;;;;;4.90;2.93;;;19.00;99.90;;;;;;5111050;27;20620;-44
2021/09/07 10:09:20;;;;;;;5.77;3.50;;;19.10;99.90;;;;;;5107827;27;20220;-44
2021/09/07 10:11:53;;;;;;;3.80;3.17;;;19.20;99.90;;;;;;5118413;27;20197;-49
2021/09/07 10:14:25;;;;;;;4.30;3.17;;;19.30;99.90;;;;;;5114069;27;20219;-44
2021/09/07 10:17:29;;;;;;;5.23;3.40;;;19.30;99.90;;;;;;5118690;27;20654;-44
2021/09/07 10:20:03;;;;;;;4.13;3.27;;;19.30;99.90;;;;;;5111705;27;20196;-47
2021/09/07 10:23:04;;;;;;;6.77;3.00;;;19.40;99.90;;;;;;5118116;27;20256;-44
2021/09/07 10:25:52;;;;;;;5.90;3.13;;;19.40;99.90;;;;;;5114121;27;20234;-43
2021/09/07 10:28:40;;;;;;;3.97;3.47;;;19.50;99.90;;;;;;5109008;27;20232;-44
2021/09/07 10:31:12;;;;;;;4.40;2.83;;;19.50;99.90;;;;;;5111453;27;20192;-49
2021/09/07 10:33:42;;;;;;;4.13;2.97;;;19.60;99.90;;;;;;5099503;27;20216;-43
2021/09/07 10:36:11;;;;;;;3.90;3.30;;;19.70;99.90;;;;;;5117524;27;20654;-48
2021/09/07 10:38:41;;;;;;;5.63;3.30;;;19.70;99.90;;;;;;5119554;27;20189;-48
2021/09/07 10:41:08;;;;;;;4.77;3.17;;;19.70;99.90;;;;;;5105482;27;20211;-50
2021/09/07 10:43:52;;;;;;;3.07;2.87;;;19.80;99.90;;;;;;5115729;27;20776;-45
2021/09/07 10:46:41;;;;;;;4.37;3.40;;;19.80;99.90;;;;;;5110357;27;20204;-46
2021/09/07 10:49:17;;;;;;;3.63;3.20;;;19.80;99.90;;;;;;5103201;27;20305;-44
2021/09/07 10:52:07;;;;;;;7.00;3.20;;;19.90;99.90;;;;;;5113313;27;20581;-43
2021/09/07 10:54:35;;;;;;;3.33;2.83;;;19.80;99.90;;;;;;5109125;27;20726;-48
2021/09/07 10:57:02;;;;;;;3.37;2.80;;;19.90;99.90;;;;;;5122058;27;20196;-51
2021/09/07 10:59:50;;;;;;;3.57;3.13;;;20.10;99.90;;;;;;5120136;27;20185;-45
2021/09/07 11:02:33;;;;;;;3.80;3.00;;;20.20;99.90;;;;;;5102680;27;20180;-47
2021/09/07 11:05:03;;;;;;;4.40;2.57;;;20.30;99.90;;;;;;5100124;27;20753;-42
2021/09/07 11:07:41;;;;;;;4.47;2.93;;;20.30;99.90;;;;;;5109571;27;20216;-49
2021/09/07 11:10:26;;;;;;;3.67;3.17;;;20.30;99.90;;;;;;5116419;27;20208;-47
2021/09/07 11:12:54;;;;;;;5.17;3.07;;;20.30;99.90;;;;;;5121072;27;20235;-44
2021/09/07 11:15:23;;;;;;;3.50;2.80;;;20.40;99.90;;;;;;5106046;27;20209;-48
2021/09/07 11:17:52;;;;;;;3.03;2.73;;;20.40;99.90;;;;;;5116547;27;20185;-46
2021/09/07 11:20:22;;;;;;;3.57;3.27;;;20.50;99.90;;;;;;5133441;27;20184;-47
2021/09/07 11:22:49;;;;;;;3.80;3.37;;;20.50;99.90;;;;;;5116181;27;20740;-46
2021/09/07 11:25:18;;;;;;;5.03;3.17;;;20.60;99.90;;;;;;5108735;27;20214;-47
2021/09/07 11:27:49;;;;;;;3.20;2.90;;;20.60;99.90;;;;;;5122350;27;20542;-46
2021/09/07 11:30:22;;;;;;;3.83;2.80;;;20.70;99.90;;;;;;5104569;27;20192;-57
2021/09/07 11:32:49;;;;;;;4.40;2.40;;;20.70;99.90;;;;;;5110780;27;20307;-57
2021/09/07 11:35:15;;;;;;;3.90;2.67;;;20.70;99.90;;;;;;5118712;27;20216;-56
2021/09/07 11:37:43;;;;;;;3.90;2.73;;;20.80;99.90;;;;;;5110558;27;20201;-54
2021/09/07 11:40:11;;;;;;;2.60;2.40;;;20.90;99.90;;;;;;5112254;27;20199;-58
2021/09/07 11:42:45;;;;;;;3.20;2.90;;;21.10;99.90;;;;;;5118174;27;20207;-55
2021/09/07 11:45:18;;;;;;;4.17;2.83;;;21.10;99.90;;;;;;5114268;27;20302;-56
2021/09/07 11:47:45;;;;;;;3.40;3.10;;;21.10;99.90;;;;;;5126237;27;20220;-55
2021/09/07 11:50:16;;;;;;;2.73;2.53;;;21.00;99.90;;;;;;5113455;27;20287;-57
2021/09/07 11:52:47;;;;;;;4.63;2.57;;;21.10;99.90;;;;;;5102346;27;20225;-57
2021/09/07 11:55:36;;;;;;;4.30;2.57;;;21.10;99.90;;;;;;5111719;27;20279;-58
2021/09/07 11:58:03;;;;;;;3.27;2.50;;;21.20;99.90;;;;;;5108244;27;20197;-47
2021/09/07 12:00:29;;;;;;;3.03;2.70;;;21.30;99.90;;;;;;5114079;27;20189;-44
2021/09/07 12:03:13;;;;;;;3.70;2.73;;;21.40;99.90;;;;;;5119736;27;20209;-46
2021/09/07 12:05:56;;;;;;;4.70;2.77;;;21.50;99.90;;;;;;5124019;27;20201;-49
2021/09/07 12:08:38;;;;;;;2.92;2.38;;;21.40;99.90;;;;;;5109484;27;20224;-43
2021/09/07 12:11:07;;;;;;;2.60;2.40;;;21.50;99.90;;;;;;5114188;27;20662;-49
2021/09/07 12:13:34;;;;;;;3.03;2.53;;;21.50;99.90;;;;;;5102887;27;20232;-42
2021/09/07 12:16:02;;;;;;;4.18;2.70;;;21.60;99.90;;;;;;5109688;27;20205;-51
2021/09/07 12:18:30;;;;;;;3.20;2.85;;;21.70;99.90;;;;;;5118078;27;20180;-47
2021/09/07 12:21:09;;;;;;;3.10;2.75;;;21.90;99.90;;;;;;5118903;27;20192;-48
2021/09/07 12:23:39;;;;;;;3.10;2.45;;;21.90;99.90;;;;;;5114467;27;20215;-47
2021/09/07 12:26:06;;;;;;;4.15;2.20;;;22.00;99.90;;;;;;5121305;27;20200;-49
2021/09/07 12:28:34;;;;;;;3.15;2.85;;;21.90;99.90;;;;;;5112342;27;20221;-47
2021/09/07 12:31:19;;;;;;;3.42;3.13;;;22.00;99.90;;;;;;5103380;27;20215;-42
2021/09/07 12:33:48;;;;;;;5.05;3.03;;;22.10;99.90;;;;;;5112981;27;20224;-48
2021/09/07 12:36:17;;;;;;;3.95;2.53;;;22.10;99.90;;;;;;5105961;27;20735;-45
2021/09/07 12:38:45;;;;;;;3.53;2.88;;;22.10;99.90;;;;;;5101112;27;20201;-51
2021/09/07 12:41:16;;;;;;;5.20;2.65;;;22.10;99.90;;;;;;5112648;27;20203;-42